sensor_id;sensor_type;location;lat;lon;timestamp;temperature;humidity
74513;DHT22;62992;52.052;8.550;2023-03-01T00:02:40;-1.50;99.90
74513;DHT22;62992;52.052;8.550;2023-03-01T00:05:24;-1.50;99.90
74513;DHT22;62992;52.052;8.550;2023-03-01T00:08:07;-1.50;99.90
74513;DHT22;62992;52.052;8.550;2023-03-01T00:11:08;-1.50;99.90
74513;DHT22;62992;52.052;8.550;2023-03-01T00:13:57;-1.50;99.90
74513;DHT22;62992;52.052;8.550;2023-03-01T00:16:43;-1.60;99.90
74513;DHT22;62992;52.052;8.550;2023-03-01T00:19:27;-1.60;99.90
74513;DHT22;62992;52.052;8.550;2023-03-01T00:22:11;-1.70;99.90
74513;DHT22;62992;52.052;8.550;2023-03-01T00:24:55;-1.70;99.90
74513;DHT22;62992;52.052;8.550;2023-03-01T00:27:39;-1.70;99.90
74513;DHT22;62992;52.052;8.550;2023-03-01T00:30:23;-1.70;99.90
74513;DHT22;62992;52.052;8.550;2023-03-01T00:33:07;-1.60;99.90
74513;DHT22;62992;52.052;8.550;2023-03-01T00:35:51;-1.60;99.90
74513;DHT22;62992;52.052;8.550;2023-03-01T00:38:44;-1.70;99.90
74513;DHT22;62992;52.052;8.550;2023-03-01T00:41:28;-1.80;99.90
74513;DHT22;62992;52.052;8.550;2023-03-01T00:44:12;-1.90;99.90
74513;DHT22;62992;52.052;8.550;2023-03-01T00:46:56;-1.90;99.90
74513;DHT22;62992;52.052;8.550;2023-03-01T00:49:40;-1.90;99.90
74513;DHT22;62992;52.052;8.550;2023-03-01T00:52:24;-1.90;99.90
74513;DHT22;62992;52.052;8.550;2023-03-01T00:55:09;-1.90;99.90
74513;DHT22;62992;52.052;8.550;2023-03-01T00:57:53;-1.90;99.90
74513;DHT22;62992;52.052;8.550;2023-03-01T01:00:37;-1.90;99.90
74513;DHT22;62992;52.052;8.550;2023-03-01T01:03:21;-1.90;99.90
74513;DHT22;62992;52.052;8.550;2023-03-01T01:06:20;-1.90;99.90
74513;DHT22;62992;52.052;8.550;2023-03-01T01:09:06;-2.00;99.90
74513;DHT22;62992;52.052;8.550;2023-03-01T01:11:51;-2.00;99.90
74513;DHT22;62992;52.052;8.550;2023-03-01T01:14:35;-2.00;99.90
74513;DHT22;62992;52.052;8.550;2023-03-01T01:17:20;-2.10;99.90
74513;DHT22;62992;52.052;8.550;2023-03-01T01:20:04;-2.10;99.90
74513;DHT22;62992;52.052;8.550;2023-03-01T01:22:48;-2.10;99.90
74513;DHT22;62992;52.052;8.550;2023-03-01T01:25:35;-2.10;99.90
74513;DHT22;62992;52.052;8.550;2023-03-01T01:28:19;-2.20;99.90
74513;DHT22;62992;52.052;8.550;2023-03-01T01:31:04;-2.20;99.90
74513;DHT22;62992;52.052;8.550;2023-03-01T01:33:48;-2.20;99.90
74513;DHT22;62992;52.052;8.550;2023-03-01T01:36:33;-2.20;99.90
74513;DHT22;62992;52.052;8.550;2023-03-01T01:39:18;-2.30;99.90
74513;DHT22;62992;52.052;8.550;2023-03-01T01:42:02;-2.20;99.90
74513;DHT22;62992;52.052;8.550;2023-03-01T01:44:46;-2.30;99.90
74513;DHT22;62992;52.052;8.550;2023-03-01T01:47:31;-2.30;99.90
74513;DHT22;62992;52.052;8.550;2023-03-01T01:50:17;-2.30;99.90
74513;DHT22;62992;52.052;8.550;2023-03-01T01:53:02;-2.30;99.90
74513;DHT22;62992;52.052;8.550;2023-03-01T01:55:49;-2.30;99.90
74513;DHT22;62992;52.052;8.550;2023-03-01T01:58:36;-2.30;99.90
74513;DHT22;62992;52.052;8.550;2023-03-01T02:01:21;-2.30;99.90
74513;DHT22;62992;52.052;8.550;2023-03-01T02:04:05;-2.30;99.90
74513;DHT22;62992;52.052;8.550;2023-03-01T02:07:06;-2.30;99.90
74513;DHT22;62992;52.052;8.550;2023-03-01T02:09:52;-2.40;99.90
74513;DHT22;62992;52.052;8.550;2023-03-01T02:12:37;-2.40;99.90
74513;DHT22;62992;52.052;8.550;2023-03-01T02:15:23;-2.60;99.90
74513;DHT22;62992;52.052;8.550;2023-03-01T02:18:08;-2.60;99.90
74513;DHT22;62992;52.052;8.550;2023-03-01T02:21:25;-2.50;99.90
74513;DHT22;62992;52.052;8.550;2023-03-01T02:24:40;-2.50;99.90
74513;DHT22;62992;52.052;8.550;2023-03-01T02:27:37;-2.50;99.90
74513;DHT22;62992;52.052;8.550;2023-03-01T02:30:25;-2.50;99.90
74513;DHT22;62992;52.052;8.550;2023-03-01T02:33:09;-2.60;99.90
74513;DHT22;62992;52.052;8.550;2023-03-01T02:35:55;-2.60;99.90
74513;DHT22;62992;52.052;8.550;2023-03-01T02:38:41;-2.60;99.90
74513;DHT22;62992;52.052;8.550;2023-03-01T02:41:26;-2.50;99.90
74513;DHT22;62992;52.052;8.550;2023-03-01T02:44:12;-2.50;99.90
74513;DHT22;62992;52.052;8.550;2023-03-01T02:46:57;-2.60;99.90
74513;DHT22;62992;52.052;8.550;2023-03-01T02:49:41;-2.60;99.90
74513;DHT22;62992;52.052;8.550;2023-03-01T02:52:40;-2.70;99.90
74513;DHT22;62992;52.052;8.550;2023-03-01T02:55:27;-2.70;99.90
74513;DHT22;62992;52.052;8.550;2023-03-01T02:58:11;-2.70;99.90
74513;DHT22;62992;52.052;8.550;2023-03-01T03:00:56;-2.70;99.90
74513;DHT22;62992;52.052;8.550;2023-03-01T03:03:41;-2.70;99.90
74513;DHT22;62992;52.052;8.550;2023-03-01T03:06:26;-2.80;99.90
74513;DHT22;62992;52.052;8.550;2023-03-01T03:09:10;-2.80;99.90
74513;DHT22;62992;52.052;8.550;2023-03-01T03:11:54;-2.80;99.90
74513;DHT22;62992;52.052;8.550;2023-03-01T03:14:38;-2.90;99.90
74513;DHT22;62992;52.052;8.550;2023-03-01T03:17:22;-2.90;99.90
74513;DHT22;62992;52.052;8.550;2023-03-01T03:20:09;-2.90;99.90
74513;DHT22;62992;52.052;8.550;2023-03-01T03:22:57;-2.90;99.90
74513;DHT22;62992;52.052;8.550;2023-03-01T03:25:42;-3.00;99.90
74513;DHT22;62992;52.052;8.550;2023-03-01T03:28:26;-3.00;99.90
74513;DHT22;62992;52.052;8.550;2023-03-01T03:31:10;-3.00;99.90
74513;DHT22;62992;52.052;8.550;2023-03-01T03:33:55;-3.00;99.90
74513;DHT22;62992;52.052;8.550;2023-03-01T03:36:39;-3.00;99.90
74513;DHT22;62992;52.052;8.550;2023-03-01T03:39:24;-2.90;99.90
74513;DHT22;62992;52.052;8.550;2023-03-01T03:42:08;-3.10;99.90
74513;DHT22;62992;52.052;8.550;2023-03-01T03:44:54;-3.10;99.90
74513;DHT22;62992;52.052;8.550;2023-03-01T03:47:38;-3.00;99.90
74513;DHT22;62992;52.052;8.550;2023-03-01T03:50:22;-3.10;99.90
74513;DHT22;62992;52.052;8.550;2023-03-01T03:53:10;-3.10;99.90
74513;DHT22;62992;52.052;8.550;2023-03-01T03:55:55;-3.10;99.90
74513;DHT22;62992;52.052;8.550;2023-03-01T03:58:39;-3.00;99.90
74513;DHT22;62992;52.052;8.550;2023-03-01T04:01:23;-3.00;99.90
74513;DHT22;62992;52.052;8.550;2023-03-01T04:04:07;-3.00;99.90
74513;DHT22;62992;52.052;8.550;2023-03-01T04:06:51;-3.00;99.90
74513;DHT22;62992;52.052;8.550;2023-03-01T04:09:35;-2.90;99.90
74513;DHT22;62992;52.052;8.550;2023-03-01T04:12:19;-3.00;99.90
74513;DHT22;62992;52.052;8.550;2023-03-01T04:15:07;-3.00;99.90
74513;DHT22;62992;52.052;8.550;2023-03-01T04:17:58;-3.00;99.90
74513;DHT22;62992;52.052;8.550;2023-03-01T04:20:43;-3.00;99.90
74513;DHT22;62992;52.052;8.550;2023-03-01T04:23:28;-3.00;99.90
74513;DHT22;62992;52.052;8.550;2023-03-01T04:26:13;-3.10;99.90
74513;DHT22;62992;52.052;8.550;2023-03-01T04:28:57;-3.20;99.90
74513;DHT22;62992;52.052;8.550;2023-03-01T04:31:41;-3.20;99.90
74513;DHT22;62992;52.052;8.550;2023-03-01T04:34:25;-3.20;99.90
74513;DHT22;62992;52.052;8.550;2023-03-01T04:37:10;-3.20;99.90
74513;DHT22;62992;52.052;8.550;2023-03-01T04:39:54;-3.20;99.90
74513;DHT22;62992;52.052;8.550;2023-03-01T04:42:38;-3.20;99.90
74513;DHT22;62992;52.052;8.550;2023-03-01T04:45:23;-3.20;99.90
74513;DHT22;62992;52.052;8.550;2023-03-01T04:48:07;-3.20;99.90
74513;DHT22;62992;52.052;8.550;2023-03-01T04:50:51;-3.20;99.90
74513;DHT22;62992;52.052;8.550;2023-03-01T04:53:35;-3.20;99.90
74513;DHT22;62992;52.052;8.550;2023-03-01T04:56:23;-3.20;99.90
74513;DHT22;62992;52.052;8.550;2023-03-01T04:59:07;-3.20;99.90
74513;DHT22;62992;52.052;8.550;2023-03-01T05:01:54;-3.20;99.90
74513;DHT22;62992;52.052;8.550;2023-03-01T05:04:44;-3.20;99.90
74513;DHT22;62992;52.052;8.550;2023-03-01T05:07:28;-3.20;99.90
74513;DHT22;62992;52.052;8.550;2023-03-01T05:10:12;-3.30;99.90
74513;DHT22;62992;52.052;8.550;2023-03-01T05:12:57;-3.30;99.90
74513;DHT22;62992;52.052;8.550;2023-03-01T05:15:41;-3.30;99.90
74513;DHT22;62992;52.052;8.550;2023-03-01T05:18:27;-3.50;99.90
74513;DHT22;62992;52.052;8.550;2023-03-01T05:21:13;-3.40;99.90
74513;DHT22;62992;52.052;8.550;2023-03-01T05:23:59;-3.40;99.90
74513;DHT22;62992;52.052;8.550;2023-03-01T05:26:43;-3.50;99.90
74513;DHT22;62992;52.052;8.550;2023-03-01T05:29:29;-3.50;99.90
74513;DHT22;62992;52.052;8.550;2023-03-01T05:32:14;-3.50;99.90
74513;DHT22;62992;52.052;8.550;2023-03-01T05:34:59;-3.60;99.90
74513;DHT22;62992;52.052;8.550;2023-03-01T05:37:45;-3.50;99.90
74513;DHT22;62992;52.052;8.550;2023-03-01T05:40:30;-3.60;99.90
74513;DHT22;62992;52.052;8.550;2023-03-01T05:43:15;-3.60;99.90
74513;DHT22;62992;52.052;8.550;2023-03-01T05:46:00;-3.60;99.90
74513;DHT22;62992;52.052;8.550;2023-03-01T05:48:44;-3.70;99.90
74513;DHT22;62992;52.052;8.550;2023-03-01T05:51:28;-3.70;99.90
74513;DHT22;62992;52.052;8.550;2023-03-01T05:54:12;-3.70;99.90
74513;DHT22;62992;52.052;8.550;2023-03-01T05:56:56;-3.70;99.90
74513;DHT22;62992;52.052;8.550;2023-03-01T05:59:40;-3.70;99.90
74513;DHT22;62992;52.052;8.550;2023-03-01T06:02:24;-3.70;99.90
74513;DHT22;62992;52.052;8.550;2023-03-01T06:05:10;-3.70;99.90
74513;DHT22;62992;52.052;8.550;2023-03-01T06:07:59;-3.70;99.90
74513;DHT22;62992;52.052;8.550;2023-03-01T06:10:43;-3.70;99.90
74513;DHT22;62992;52.052;8.550;2023-03-01T06:13:27;-3.70;99.90
74513;DHT22;62992;52.052;8.550;2023-03-01T06:16:12;-3.70;99.90
74513;DHT22;62992;52.052;8.550;2023-03-01T06:18:56;-3.70;99.90
74513;DHT22;62992;52.052;8.550;2023-03-01T06:21:40;-3.70;99.90
74513;DHT22;62992;52.052;8.550;2023-03-01T06:24:24;-3.60;99.90
74513;DHT22;62992;52.052;8.550;2023-03-01T06:27:08;-3.60;99.90
74513;DHT22;62992;52.052;8.550;2023-03-01T06:29:52;-3.60;99.90
74513;DHT22;62992;52.052;8.550;2023-03-01T06:32:37;-3.60;99.90
74513;DHT22;62992;52.052;8.550;2023-03-01T06:35:21;-3.60;99.90
74513;DHT22;62992;52.052;8.550;2023-03-01T06:38:06;-3.50;99.90
74513;DHT22;62992;52.052;8.550;2023-03-01T06:40:54;-3.60;99.90
74513;DHT22;62992;52.052;8.550;2023-03-01T06:43:38;-3.50;99.90
74513;DHT22;62992;52.052;8.550;2023-03-01T06:46:23;-3.50;99.90
74513;DHT22;62992;52.052;8.550;2023-03-01T06:49:07;-3.50;99.90
74513;DHT22;62992;52.052;8.550;2023-03-01T06:51:53;-3.50;99.90
74513;DHT22;62992;52.052;8.550;2023-03-01T06:54:37;-3.40;99.90
74513;DHT22;62992;52.052;8.550;2023-03-01T06:57:21;-3.40;99.90
74513;DHT22;62992;52.052;8.550;2023-03-01T07:00:06;-3.40;99.90
74513;DHT22;62992;52.052;8.550;2023-03-01T07:02:51;-3.30;99.90
74513;DHT22;62992;52.052;8.550;2023-03-01T07:05:35;-3.30;99.90
74513;DHT22;62992;52.052;8.550;2023-03-01T07:08:19;-3.20;99.90
74513;DHT22;62992;52.052;8.550;2023-03-01T07:11:04;-3.10;99.90
74513;DHT22;62992;52.052;8.550;2023-03-01T07:13:49;-3.10;99.90
74513;DHT22;62992;52.052;8.550;2023-03-01T07:16:33;-3.10;99.90
74513;DHT22;62992;52.052;8.550;2023-03-01T07:19:17;-3.00;99.90
74513;DHT22;62992;52.052;8.550;2023-03-01T07:22:03;-3.00;99.90
74513;DHT22;62992;52.052;8.550;2023-03-01T07:24:48;-2.90;99.90
74513;DHT22;62992;52.052;8.550;2023-03-01T07:27:32;-2.70;99.90
74513;DHT22;62992;52.052;8.550;2023-03-01T07:30:16;-2.70;99.90
74513;DHT22;62992;52.052;8.550;2023-03-01T07:33:01;-2.50;99.90
74513;DHT22;62992;52.052;8.550;2023-03-01T07:35:45;-2.30;99.90
74513;DHT22;62992;52.052;8.550;2023-03-01T07:38:29;-1.30;99.90
74513;DHT22;62992;52.052;8.550;2023-03-01T07:41:14;2.00;99.90
74513;DHT22;62992;52.052;8.550;2023-03-01T07:43:58;5.80;99.90
74513;DHT22;62992;52.052;8.550;2023-03-01T07:46:42;7.90;99.90
74513;DHT22;62992;52.052;8.550;2023-03-01T07:49:26;9.20;96.60
74513;DHT22;62992;52.052;8.550;2023-03-01T07:52:11;9.90;94.80
74513;DHT22;62992;52.052;8.550;2023-03-01T07:54:57;10.10;93.30
74513;DHT22;62992;52.052;8.550;2023-03-01T07:57:41;10.20;92.90
74513;DHT22;62992;52.052;8.550;2023-03-01T08:00:25;9.50;92.90
74513;DHT22;62992;52.052;8.550;2023-03-01T08:03:09;8.90;94.20
74513;DHT22;62992;52.052;8.550;2023-03-01T08:05:53;9.00;94.40
74513;DHT22;62992;52.052;8.550;2023-03-01T08:08:37;10.30;92.80
74513;DHT22;62992;52.052;8.550;2023-03-01T08:11:22;11.90;90.00
74513;DHT22;62992;52.052;8.550;2023-03-01T08:14:07;12.40;88.00
74513;DHT22;62992;52.052;8.550;2023-03-01T08:16:51;12.80;85.50
74513;DHT22;62992;52.052;8.550;2023-03-01T08:19:35;13.00;83.90
74513;DHT22;62992;52.052;8.550;2023-03-01T08:22:19;13.20;82.90
74513;DHT22;62992;52.052;8.550;2023-03-01T08:25:03;13.10;82.40
74513;DHT22;62992;52.052;8.550;2023-03-01T08:27:48;13.10;82.60
74513;DHT22;62992;52.052;8.550;2023-03-01T08:30:32;13.40;81.40
74513;DHT22;62992;52.052;8.550;2023-03-01T08:33:16;13.60;80.00
74513;DHT22;62992;52.052;8.550;2023-03-01T08:36:06;12.50;82.90
74513;DHT22;62992;52.052;8.550;2023-03-01T08:38:51;10.40;90.00
74513;DHT22;62992;52.052;8.550;2023-03-01T08:41:35;11.10;90.50
74513;DHT22;62992;52.052;8.550;2023-03-01T08:44:20;11.70;88.60
74513;DHT22;62992;52.052;8.550;2023-03-01T08:47:05;12.00;88.10
74513;DHT22;62992;52.052;8.550;2023-03-01T08:49:50;12.60;85.40
74513;DHT22;62992;52.052;8.550;2023-03-01T08:52:34;10.50;89.40
74513;DHT22;62992;52.052;8.550;2023-03-01T08:55:18;10.90;90.60
74513;DHT22;62992;52.052;8.550;2023-03-01T08:58:02;9.30;91.50
74513;DHT22;62992;52.052;8.550;2023-03-01T09:00:46;9.70;92.80
74513;DHT22;62992;52.052;8.550;2023-03-01T09:03:30;9.20;91.80
74513;DHT22;62992;52.052;8.550;2023-03-01T09:06:15;8.90;93.10
74513;DHT22;62992;52.052;8.550;2023-03-01T09:09:00;8.50;93.80
74513;DHT22;62992;52.052;8.550;2023-03-01T09:11:45;9.30;93.90
74513;DHT22;62992;52.052;8.550;2023-03-01T09:14:34;11.20;91.20
74513;DHT22;62992;52.052;8.550;2023-03-01T09:17:18;11.50;90.40
74513;DHT22;62992;52.052;8.550;2023-03-01T09:20:06;9.30;92.10
74513;DHT22;62992;52.052;8.550;2023-03-01T09:22:50;9.90;92.10
74513;DHT22;62992;52.052;8.550;2023-03-01T09:25:34;10.20;91.60
74513;DHT22;62992;52.052;8.550;2023-03-01T09:28:19;9.00;92.40
74513;DHT22;62992;52.052;8.550;2023-03-01T09:31:03;10.00;92.10
74513;DHT22;62992;52.052;8.550;2023-03-01T09:33:49;10.60;90.90
74513;DHT22;62992;52.052;8.550;2023-03-01T09:36:34;9.70;92.00
74513;DHT22;62992;52.052;8.550;2023-03-01T09:39:18;9.00;92.50
74513;DHT22;62992;52.052;8.550;2023-03-01T09:42:03;8.70;92.70
74513;DHT22;62992;52.052;8.550;2023-03-01T09:44:56;8.80;93.40
74513;DHT22;62992;52.052;8.550;2023-03-01T09:47:41;8.90;93.20
74513;DHT22;62992;52.052;8.550;2023-03-01T09:50:32;8.40;93.60
74513;DHT22;62992;52.052;8.550;2023-03-01T09:53:23;8.60;93.30
74513;DHT22;62992;52.052;8.550;2023-03-01T09:56:20;8.90;92.90
74513;DHT22;62992;52.052;8.550;2023-03-01T09:59:11;8.70;91.90
74513;DHT22;62992;52.052;8.550;2023-03-01T10:02:25;8.20;92.00
74513;DHT22;62992;52.052;8.550;2023-03-01T10:05:52;8.80;91.80
74513;DHT22;62992;52.052;8.550;2023-03-01T10:08:49;8.30;91.60
74513;DHT22;62992;52.052;8.550;2023-03-01T10:11:40;9.10;92.30
74513;DHT22;62992;52.052;8.550;2023-03-01T10:17:41;9.00;90.90
74513;DHT22;62992;52.052;8.550;2023-03-01T10:23:23;9.30;90.70
74513;DHT22;62992;52.052;8.550;2023-03-01T10:26:27;9.30;91.20
74513;DHT22;62992;52.052;8.550;2023-03-01T10:29:16;9.40;90.10
74513;DHT22;62992;52.052;8.550;2023-03-01T10:32:01;9.00;90.60
74513;DHT22;62992;52.052;8.550;2023-03-01T10:34:47;8.70;90.60
74513;DHT22;62992;52.052;8.550;2023-03-01T10:37:31;8.70;90.80
74513;DHT22;62992;52.052;8.550;2023-03-01T10:40:15;8.40;91.20
74513;DHT22;62992;52.052;8.550;2023-03-01T10:43:05;9.00;91.40
74513;DHT22;62992;52.052;8.550;2023-03-01T10:45:49;9.20;90.80
74513;DHT22;62992;52.052;8.550;2023-03-01T10:48:33;9.20;90.20
74513;DHT22;62992;52.052;8.550;2023-03-01T10:51:17;8.20;90.90
74513;DHT22;62992;52.052;8.550;2023-03-01T10:54:04;8.70;90.60
74513;DHT22;62992;52.052;8.550;2023-03-01T10:56:52;8.80;91.50
74513;DHT22;62992;52.052;8.550;2023-03-01T10:59:40;9.20;90.70
74513;DHT22;62992;52.052;8.550;2023-03-01T11:02:30;9.10;90.50
74513;DHT22;62992;52.052;8.550;2023-03-01T11:05:23;9.60;89.90
74513;DHT22;62992;52.052;8.550;2023-03-01T11:08:07;9.50;89.10
74513;DHT22;62992;52.052;8.550;2023-03-01T11:11:07;9.70;90.10
74513;DHT22;62992;52.052;8.550;2023-03-01T11:14:22;9.10;90.20
74513;DHT22;62992;52.052;8.550;2023-03-01T11:17:26;8.90;90.30
74513;DHT22;62992;52.052;8.550;2023-03-01T11:20:32;8.70;90.60
74513;DHT22;62992;52.052;8.550;2023-03-01T11:23:17;9.40;89.10
74513;DHT22;62992;52.052;8.550;2023-03-01T11:26:05;9.20;90.30
74513;DHT22;62992;52.052;8.550;2023-03-01T11:28:56;9.50;89.10
74513;DHT22;62992;52.052;8.550;2023-03-01T11:31:42;9.20;87.90
74513;DHT22;62992;52.052;8.550;2023-03-01T11:37:38;8.90;87.70
74513;DHT22;62992;52.052;8.550;2023-03-01T11:40:25;8.60;88.50
74513;DHT22;62992;52.052;8.550;2023-03-01T11:49:25;8.50;90.80
74513;DHT22;62992;52.052;8.550;2023-03-01T11:55:21;7.90;90.80
74513;DHT22;62992;52.052;8.550;2023-03-01T12:07:00;7.30;92.20
74513;DHT22;62992;52.052;8.550;2023-03-01T12:09:48;7.10;93.00
74513;DHT22;62992;52.052;8.550;2023-03-01T12:19:15;6.90;92.90
74513;DHT22;62992;52.052;8.550;2023-03-01T12:22:25;7.00;93.20
74513;DHT22;62992;52.052;8.550;2023-03-01T12:25:29;6.70;93.00
74513;DHT22;62992;52.052;8.550;2023-03-01T12:28:46;6.60;93.00
74513;DHT22;62992;52.052;8.550;2023-03-01T12:34:48;6.40;91.70
74513;DHT22;62992;52.052;8.550;2023-03-01T12:38:06;6.50;91.90
74513;DHT22;62992;52.052;8.550;2023-03-01T12:45:34;6.60;92.10
74513;DHT22;62992;52.052;8.550;2023-03-01T12:51:01;6.40;92.10
74513;DHT22;62992;52.052;8.550;2023-03-01T12:53:49;6.60;92.40
74513;DHT22;62992;52.052;8.550;2023-03-01T12:56:35;6.50;91.80
74513;DHT22;62992;52.052;8.550;2023-03-01T12:59:29;6.50;92.00
74513;DHT22;62992;52.052;8.550;2023-03-01T13:05:24;6.50;92.70
74513;DHT22;62992;52.052;8.550;2023-03-01T13:11:22;6.30;92.50
74513;DHT22;62992;52.052;8.550;2023-03-01T13:17:30;6.20;91.50
74513;DHT22;62992;52.052;8.550;2023-03-01T13:20:18;6.30;91.80
74513;DHT22;62992;52.052;8.550;2023-03-01T13:23:11;6.30;92.20
74513;DHT22;62992;52.052;8.550;2023-03-01T13:26:12;6.50;92.40
74513;DHT22;62992;52.052;8.550;2023-03-01T13:28:57;6.30;91.20
74513;DHT22;62992;52.052;8.550;2023-03-01T13:37:42;6.30;92.10
74513;DHT22;62992;52.052;8.550;2023-03-01T13:43:32;6.40;91.80
74513;DHT22;62992;52.052;8.550;2023-03-01T13:46:23;6.30;92.50
74513;DHT22;62992;52.052;8.550;2023-03-01T13:49:13;6.30;92.00
74513;DHT22;62992;52.052;8.550;2023-03-01T13:51:58;6.30;91.90
74513;DHT22;62992;52.052;8.550;2023-03-01T13:54:42;6.30;91.90
74513;DHT22;62992;52.052;8.550;2023-03-01T13:57:33;6.40;92.10
74513;DHT22;62992;52.052;8.550;2023-03-01T14:00:38;6.50;92.20
74513;DHT22;62992;52.052;8.550;2023-03-01T14:03:23;6.30;90.90
74513;DHT22;62992;52.052;8.550;2023-03-01T14:06:23;6.30;91.70
74513;DHT22;62992;52.052;8.550;2023-03-01T14:09:20;6.30;91.10
74513;DHT22;62992;52.052;8.550;2023-03-01T14:12:26;6.30;90.60
74513;DHT22;62992;52.052;8.550;2023-03-01T14:15:42;6.30;90.20
74513;DHT22;62992;52.052;8.550;2023-03-01T14:18:38;6.20;90.70
74513;DHT22;62992;52.052;8.550;2023-03-01T14:21:27;6.20;91.10
74513;DHT22;62992;52.052;8.550;2023-03-01T14:24:21;6.40;91.10
74513;DHT22;62992;52.052;8.550;2023-03-01T14:27:11;6.20;91.00
74513;DHT22;62992;52.052;8.550;2023-03-01T14:29:59;6.20;91.30
74513;DHT22;62992;52.052;8.550;2023-03-01T14:32:52;6.20;91.10
74513;DHT22;62992;52.052;8.550;2023-03-01T14:35:37;6.20;90.90
74513;DHT22;62992;52.052;8.550;2023-03-01T14:38:23;6.10;91.20
74513;DHT22;62992;52.052;8.550;2023-03-01T14:41:10;6.10;91.10
74513;DHT22;62992;52.052;8.550;2023-03-01T14:43:55;6.20;91.20
74513;DHT22;62992;52.052;8.550;2023-03-01T14:46:44;6.20;91.30
74513;DHT22;62992;52.052;8.550;2023-03-01T14:49:30;6.20;91.20
74513;DHT22;62992;52.052;8.550;2023-03-01T14:52:25;6.20;91.50
74513;DHT22;62992;52.052;8.550;2023-03-01T14:55:22;6.20;91.30
74513;DHT22;62992;52.052;8.550;2023-03-01T14:58:13;6.10;91.50
74513;DHT22;62992;52.052;8.550;2023-03-01T15:00:59;6.10;91.10
74513;DHT22;62992;52.052;8.550;2023-03-01T15:03:48;6.20;91.00
74513;DHT22;62992;52.052;8.550;2023-03-01T15:06:33;6.20;91.10
74513;DHT22;62992;52.052;8.550;2023-03-01T15:09:19;6.20;92.40
74513;DHT22;62992;52.052;8.550;2023-03-01T15:15:21;6.10;93.80
74513;DHT22;62992;52.052;8.550;2023-03-01T15:18:15;6.10;94.50
74513;DHT22;62992;52.052;8.550;2023-03-01T15:21:09;6.10;94.80
74513;DHT22;62992;52.052;8.550;2023-03-01T15:24:08;6.00;94.90
74513;DHT22;62992;52.052;8.550;2023-03-01T15:27:17;6.10;94.10
74513;DHT22;62992;52.052;8.550;2023-03-01T15:30:03;6.10;92.50
74513;DHT22;62992;52.052;8.550;2023-03-01T15:32:48;6.10;92.40
74513;DHT22;62992;52.052;8.550;2023-03-01T15:35:42;5.90;92.80
74513;DHT22;62992;52.052;8.550;2023-03-01T15:41:37;5.90;93.30
74513;DHT22;62992;52.052;8.550;2023-03-01T15:44:30;5.90;93.50
74513;DHT22;62992;52.052;8.550;2023-03-01T15:47:29;5.90;93.60
74513;DHT22;62992;52.052;8.550;2023-03-01T15:50:21;5.80;93.80
74513;DHT22;62992;52.052;8.550;2023-03-01T15:53:10;5.80;93.70
74513;DHT22;62992;52.052;8.550;2023-03-01T15:55:55;5.80;94.00
74513;DHT22;62992;52.052;8.550;2023-03-01T15:58:39;5.70;94.00
74513;DHT22;62992;52.052;8.550;2023-03-01T16:01:23;5.70;94.10
74513;DHT22;62992;52.052;8.550;2023-03-01T16:04:10;5.60;94.30
74513;DHT22;62992;52.052;8.550;2023-03-01T16:06:55;5.60;94.40
74513;DHT22;62992;52.052;8.550;2023-03-01T16:09:39;5.60;94.50
74513;DHT22;62992;52.052;8.550;2023-03-01T16:12:23;5.50;94.50
74513;DHT22;62992;52.052;8.550;2023-03-01T16:15:26;5.40;94.90
74513;DHT22;62992;52.052;8.550;2023-03-01T16:18:11;5.40;94.90
74513;DHT22;62992;52.052;8.550;2023-03-01T16:20:56;5.30;94.80
74513;DHT22;62992;52.052;8.550;2023-03-01T16:23:40;5.30;95.30
74513;DHT22;62992;52.052;8.550;2023-03-01T16:26:24;5.20;95.60
74513;DHT22;62992;52.052;8.550;2023-03-01T16:29:08;5.20;96.00
74513;DHT22;62992;52.052;8.550;2023-03-01T16:31:53;5.20;96.40
74513;DHT22;62992;52.052;8.550;2023-03-01T16:34:37;5.10;96.10
74513;DHT22;62992;52.052;8.550;2023-03-01T16:37:21;5.00;96.10
74513;DHT22;62992;52.052;8.550;2023-03-01T16:40:11;5.00;96.80
74513;DHT22;62992;52.052;8.550;2023-03-01T16:42:59;4.90;96.60
74513;DHT22;62992;52.052;8.550;2023-03-01T16:45:45;4.90;96.70
74513;DHT22;62992;52.052;8.550;2023-03-01T16:48:30;4.80;96.80
74513;DHT22;62992;52.052;8.550;2023-03-01T16:51:14;4.80;97.20
74513;DHT22;62992;52.052;8.550;2023-03-01T16:53:58;4.60;97.60
74513;DHT22;62992;52.052;8.550;2023-03-01T16:56:42;4.60;97.80
74513;DHT22;62992;52.052;8.550;2023-03-01T16:59:27;4.60;97.90
74513;DHT22;62992;52.052;8.550;2023-03-01T17:02:12;4.50;98.10
74513;DHT22;62992;52.052;8.550;2023-03-01T17:04:57;4.40;98.30
74513;DHT22;62992;52.052;8.550;2023-03-01T17:07:41;4.40;98.40
74513;DHT22;62992;52.052;8.550;2023-03-01T17:10:26;4.30;98.60
74513;DHT22;62992;52.052;8.550;2023-03-01T17:13:10;4.30;99.10
74513;DHT22;62992;52.052;8.550;2023-03-01T17:15:54;4.30;98.70
74513;DHT22;62992;52.052;8.550;2023-03-01T17:18:39;4.30;98.80
74513;DHT22;62992;52.052;8.550;2023-03-01T17:21:24;4.20;99.10
74513;DHT22;62992;52.052;8.550;2023-03-01T17:24:08;4.10;99.20
74513;DHT22;62992;52.052;8.550;2023-03-01T17:26:52;4.10;99.10
74513;DHT22;62992;52.052;8.550;2023-03-01T17:29:36;4.00;99.40
74513;DHT22;62992;52.052;8.550;2023-03-01T17:32:21;4.00;99.50
74513;DHT22;62992;52.052;8.550;2023-03-01T17:35:05;4.00;99.40
74513;DHT22;62992;52.052;8.550;2023-03-01T17:37:50;3.90;99.60
74513;DHT22;62992;52.052;8.550;2023-03-01T17:40:36;3.80;99.90
74513;DHT22;62992;52.052;8.550;2023-03-01T17:43:21;3.70;99.90
74513;DHT22;62992;52.052;8.550;2023-03-01T17:46:05;3.70;99.90
74513;DHT22;62992;52.052;8.550;2023-03-01T17:48:49;3.60;99.90
74513;DHT22;62992;52.052;8.550;2023-03-01T17:51:33;3.60;99.90
74513;DHT22;62992;52.052;8.550;2023-03-01T17:54:17;3.40;99.90
74513;DHT22;62992;52.052;8.550;2023-03-01T17:57:02;3.40;99.90
74513;DHT22;62992;52.052;8.550;2023-03-01T17:59:46;3.30;99.90
74513;DHT22;62992;52.052;8.550;2023-03-01T18:02:29;3.30;99.90
74513;DHT22;62992;52.052;8.550;2023-03-01T18:05:14;3.10;99.90
74513;DHT22;62992;52.052;8.550;2023-03-01T18:07:58;3.10;99.90
74513;DHT22;62992;52.052;8.550;2023-03-01T18:10:42;3.10;99.90
74513;DHT22;62992;52.052;8.550;2023-03-01T18:13:26;2.90;99.90
74513;DHT22;62992;52.052;8.550;2023-03-01T18:16:12;2.80;99.90
74513;DHT22;62992;52.052;8.550;2023-03-01T18:18:56;2.70;99.90
74513;DHT22;62992;52.052;8.550;2023-03-01T18:21:41;2.60;99.90
74513;DHT22;62992;52.052;8.550;2023-03-01T18:24:26;2.60;99.90
74513;DHT22;62992;52.052;8.550;2023-03-01T18:27:10;2.50;99.90
74513;DHT22;62992;52.052;8.550;2023-03-01T18:29:54;2.40;99.90
74513;DHT22;62992;52.052;8.550;2023-03-01T18:32:39;2.30;99.90
74513;DHT22;62992;52.052;8.550;2023-03-01T18:35:23;2.20;99.90
74513;DHT22;62992;52.052;8.550;2023-03-01T18:38:07;2.10;99.90
74513;DHT22;62992;52.052;8.550;2023-03-01T18:40:52;2.10;99.90
74513;DHT22;62992;52.052;8.550;2023-03-01T18:43:36;2.00;99.90
74513;DHT22;62992;52.052;8.550;2023-03-01T18:46:20;1.90;99.90
74513;DHT22;62992;52.052;8.550;2023-03-01T18:49:05;2.00;99.90
74513;DHT22;62992;52.052;8.550;2023-03-01T18:51:50;2.10;99.90
74513;DHT22;62992;52.052;8.550;2023-03-01T18:54:34;2.20;99.90